sensor_id;sensor_type;location;lat;lon;timestamp;P1;durP1;ratioP1;P2;durP2;ratioP2
45236;SDS011;30973;51.442;3.580;2023-06-10T00:00:48;9.77;;;6.85;;
45236;SDS011;30973;51.442;3.580;2023-06-10T00:03:17;8.98;;;6.80;;
45236;SDS011;30973;51.442;3.580;2023-06-10T00:05:44;8.63;;;7.15;;
45236;SDS011;30973;51.442;3.580;2023-06-10T00:08:11;9.25;;;7.25;;
45236;SDS011;30973;51.442;3.580;2023-06-10T00:10:38;9.10;;;6.90;;
45236;SDS011;30973;51.442;3.580;2023-06-10T00:13:05;8.80;;;7.00;;
45236;SDS011;30973;51.442;3.580;2023-06-10T00:15:34;9.98;;;7.10;;
45236;SDS011;30973;51.442;3.580;2023-06-10T00:18:02;11.27;;;6.88;;
45236;SDS011;30973;51.442;3.580;2023-06-10T00:20:29;9.85;;;7.00;;
45236;SDS011;30973;51.442;3.580;2023-06-10T00:22:58;7.80;;;7.00;;
45236;SDS011;30973;51.442;3.580;2023-06-10T00:25:25;10.95;;;7.72;;
45236;SDS011;30973;51.442;3.580;2023-06-10T00:27:52;9.63;;;7.43;;
45236;SDS011;30973;51.442;3.580;2023-06-10T00:30:20;11.48;;;7.05;;
45236;SDS011;30973;51.442;3.580;2023-06-10T00:32:47;7.68;;;6.82;;
45236;SDS011;30973;51.442;3.580;2023-06-10T00:35:14;7.90;;;7.10;;
45236;SDS011;30973;51.442;3.580;2023-06-10T00:37:41;11.57;;;7.50;;
45236;SDS011;30973;51.442;3.580;2023-06-10T00:40:08;9.80;;;7.53;;
45236;SDS011;30973;51.442;3.580;2023-06-10T00:42:37;11.40;;;7.15;;
45236;SDS011;30973;51.442;3.580;2023-06-10T00:45:05;11.10;;;7.40;;
45236;SDS011;30973;51.442;3.580;2023-06-10T00:47:32;9.80;;;7.50;;
45236;SDS011;30973;51.442;3.580;2023-06-10T00:49:59;8.10;;;7.25;;
45236;SDS011;30973;51.442;3.580;2023-06-10T00:52:27;10.05;;;6.88;;
45236;SDS011;30973;51.442;3.580;2023-06-10T00:54:54;9.95;;;7.35;;
45236;SDS011;30973;51.442;3.580;2023-06-10T00:57:21;10.20;;;6.82;;
45236;SDS011;30973;51.442;3.580;2023-06-10T00:59:48;9.20;;;7.13;;
45236;SDS011;30973;51.442;3.580;2023-06-10T01:02:15;10.68;;;7.57;;
45236;SDS011;30973;51.442;3.580;2023-06-10T01:04:42;8.68;;;7.07;;
45236;SDS011;30973;51.442;3.580;2023-06-10T01:07:17;9.77;;;7.43;;
45236;SDS011;30973;51.442;3.580;2023-06-10T01:15:05;8.40;;;7.50;;
45236;SDS011;30973;51.442;3.580;2023-06-10T01:17:32;10.32;;;7.68;;
45236;SDS011;30973;51.442;3.580;2023-06-10T01:20:00;9.20;;;7.93;;
45236;SDS011;30973;51.442;3.580;2023-06-10T01:22:29;10.02;;;8.02;;
45236;SDS011;30973;51.442;3.580;2023-06-10T01:24:58;8.65;;;7.20;;
45236;SDS011;30973;51.442;3.580;2023-06-10T01:27:26;13.23;;;7.78;;
45236;SDS011;30973;51.442;3.580;2023-06-10T01:29:58;8.68;;;7.75;;
45236;SDS011;30973;51.442;3.580;2023-06-10T01:34:52;9.15;;;7.60;;
45236;SDS011;30973;51.442;3.580;2023-06-10T01:37:19;9.63;;;7.70;;
45236;SDS011;30973;51.442;3.580;2023-06-10T01:39:49;8.50;;;7.50;;
45236;SDS011;30973;51.442;3.580;2023-06-10T01:42:17;10.27;;;7.53;;
45236;SDS011;30973;51.442;3.580;2023-06-10T01:44:44;8.20;;;7.40;;
45236;SDS011;30973;51.442;3.580;2023-06-10T01:47:10;11.82;;;8.00;;
45236;SDS011;30973;51.442;3.580;2023-06-10T01:49:37;9.10;;;7.50;;
45236;SDS011;30973;51.442;3.580;2023-06-10T01:52:06;9.25;;;7.43;;
45236;SDS011;30973;51.442;3.580;2023-06-10T01:54:33;11.27;;;8.50;;
45236;SDS011;30973;51.442;3.580;2023-06-10T01:57:01;8.38;;;7.57;;
45236;SDS011;30973;51.442;3.580;2023-06-10T01:59:28;8.95;;;7.80;;
45236;SDS011;30973;51.442;3.580;2023-06-10T02:01:54;10.02;;;7.55;;
45236;SDS011;30973;51.442;3.580;2023-06-10T02:04:21;11.25;;;7.60;;
45236;SDS011;30973;51.442;3.580;2023-06-10T02:06:48;9.88;;;7.45;;
45236;SDS011;30973;51.442;3.580;2023-06-10T02:09:14;9.90;;;7.85;;
45236;SDS011;30973;51.442;3.580;2023-06-10T02:11:41;10.10;;;7.82;;
45236;SDS011;30973;51.442;3.580;2023-06-10T02:14:07;12.20;;;7.93;;
45236;SDS011;30973;51.442;3.580;2023-06-10T02:16:34;11.07;;;8.07;;
45236;SDS011;30973;51.442;3.580;2023-06-10T02:19:01;10.50;;;7.85;;
45236;SDS011;30973;51.442;3.580;2023-06-10T02:21:28;9.52;;;8.52;;
45236;SDS011;30973;51.442;3.580;2023-06-10T02:23:55;10.32;;;8.05;;
45236;SDS011;30973;51.442;3.580;2023-06-10T02:26:22;9.40;;;7.93;;
45236;SDS011;30973;51.442;3.580;2023-06-10T02:28:49;10.05;;;7.43;;
45236;SDS011;30973;51.442;3.580;2023-06-10T02:31:15;11.30;;;8.02;;
45236;SDS011;30973;51.442;3.580;2023-06-10T02:33:45;11.25;;;8.70;;
45236;SDS011;30973;51.442;3.580;2023-06-10T02:36:13;9.07;;;7.63;;
45236;SDS011;30973;51.442;3.580;2023-06-10T02:38:42;9.60;;;8.00;;
45236;SDS011;30973;51.442;3.580;2023-06-10T02:41:09;10.43;;;8.10;;
45236;SDS011;30973;51.442;3.580;2023-06-10T02:43:36;10.68;;;7.53;;
45236;SDS011;30973;51.442;3.580;2023-06-10T02:46:02;9.07;;;7.90;;
45236;SDS011;30973;51.442;3.580;2023-06-10T02:48:30;8.95;;;8.05;;
45236;SDS011;30973;51.442;3.580;2023-06-10T02:50:57;9.77;;;8.65;;
45236;SDS011;30973;51.442;3.580;2023-06-10T02:53:35;12.88;;;8.88;;
45236;SDS011;30973;51.442;3.580;2023-06-10T02:56:07;10.05;;;8.70;;
45236;SDS011;30973;51.442;3.580;2023-06-10T02:58:34;10.48;;;8.40;;
45236;SDS011;30973;51.442;3.580;2023-06-10T03:01:01;10.48;;;8.13;;
45236;SDS011;30973;51.442;3.580;2023-06-10T03:03:35;11.45;;;8.82;;
45236;SDS011;30973;51.442;3.580;2023-06-10T03:06:09;11.57;;;9.25;;
45236;SDS011;30973;51.442;3.580;2023-06-10T03:08:36;9.32;;;8.15;;
45236;SDS011;30973;51.442;3.580;2023-06-10T03:11:08;12.13;;;9.15;;
45236;SDS011;30973;51.442;3.580;2023-06-10T03:13:35;9.32;;;8.27;;
45236;SDS011;30973;51.442;3.580;2023-06-10T03:16:02;10.30;;;8.75;;
45236;SDS011;30973;51.442;3.580;2023-06-10T03:18:31;11.05;;;9.32;;
45236;SDS011;30973;51.442;3.580;2023-06-10T03:20:58;10.57;;;8.30;;
45236;SDS011;30973;51.442;3.580;2023-06-10T03:23:26;10.73;;;8.93;;
45236;SDS011;30973;51.442;3.580;2023-06-10T03:25:53;9.65;;;8.60;;
45236;SDS011;30973;51.442;3.580;2023-06-10T03:28:22;11.27;;;8.90;;
45236;SDS011;30973;51.442;3.580;2023-06-10T03:30:50;9.80;;;8.77;;
45236;SDS011;30973;51.442;3.580;2023-06-10T03:33:21;9.48;;;8.57;;
45236;SDS011;30973;51.442;3.580;2023-06-10T03:35:48;11.15;;;8.85;;
45236;SDS011;30973;51.442;3.580;2023-06-10T03:38:15;10.70;;;8.93;;
45236;SDS011;30973;51.442;3.580;2023-06-10T03:40:42;11.50;;;8.82;;
45236;SDS011;30973;51.442;3.580;2023-06-10T03:43:09;14.02;;;8.55;;
45236;SDS011;30973;51.442;3.580;2023-06-10T03:45:36;11.82;;;8.73;;
45236;SDS011;30973;51.442;3.580;2023-06-10T03:48:03;10.02;;;8.50;;
45236;SDS011;30973;51.442;3.580;2023-06-10T03:50:40;13.18;;;8.90;;
45236;SDS011;30973;51.442;3.580;2023-06-10T03:53:07;10.32;;;8.90;;
45236;SDS011;30973;51.442;3.580;2023-06-10T03:55:34;9.93;;;8.48;;
45236;SDS011;30973;51.442;3.580;2023-06-10T03:58:01;11.82;;;9.00;;
45236;SDS011;30973;51.442;3.580;2023-06-10T04:00:28;10.18;;;8.57;;
45236;SDS011;30973;51.442;3.580;2023-06-10T04:02:55;13.43;;;9.20;;
45236;SDS011;30973;51.442;3.580;2023-06-10T04:05:33;10.40;;;8.75;;
45236;SDS011;30973;51.442;3.580;2023-06-10T04:08:00;10.13;;;8.75;;
45236;SDS011;30973;51.442;3.580;2023-06-10T04:10:28;9.60;;;8.60;;
45236;SDS011;30973;51.442;3.580;2023-06-10T04:12:54;10.82;;;9.18;;
45236;SDS011;30973;51.442;3.580;2023-06-10T04:15:24;9.43;;;8.48;;
45236;SDS011;30973;51.442;3.580;2023-06-10T04:17:51;11.85;;;8.52;;
45236;SDS011;30973;51.442;3.580;2023-06-10T04:20:21;12.48;;;8.52;;
45236;SDS011;30973;51.442;3.580;2023-06-10T04:22:49;11.80;;;9.02;;
45236;SDS011;30973;51.442;3.580;2023-06-10T04:25:15;11.30;;;8.40;;
45236;SDS011;30973;51.442;3.580;2023-06-10T04:27:43;11.77;;;8.43;;
45236;SDS011;30973;51.442;3.580;2023-06-10T04:30:09;9.90;;;8.20;;
45236;SDS011;30973;51.442;3.580;2023-06-10T04:32:37;11.32;;;8.98;;
45236;SDS011;30973;51.442;3.580;2023-06-10T04:35:07;9.85;;;8.80;;
45236;SDS011;30973;51.442;3.580;2023-06-10T04:37:35;9.73;;;8.73;;
45236;SDS011;30973;51.442;3.580;2023-06-10T04:40:02;12.10;;;9.57;;
45236;SDS011;30973;51.442;3.580;2023-06-10T04:42:30;10.98;;;8.63;;
45236;SDS011;30973;51.442;3.580;2023-06-10T04:44:56;10.93;;;8.80;;
45236;SDS011;30973;51.442;3.580;2023-06-10T04:47:25;9.88;;;8.80;;
45236;SDS011;30973;51.442;3.580;2023-06-10T04:49:52;9.73;;;8.55;;
45236;SDS011;30973;51.442;3.580;2023-06-10T04:52:18;10.05;;;8.90;;
45236;SDS011;30973;51.442;3.580;2023-06-10T04:54:46;10.57;;;9.05;;
45236;SDS011;30973;51.442;3.580;2023-06-10T04:57:12;9.60;;;8.38;;
45236;SDS011;30973;51.442;3.580;2023-06-10T04:59:39;11.55;;;8.73;;
45236;SDS011;30973;51.442;3.580;2023-06-10T05:02:06;10.50;;;9.10;;
45236;SDS011;30973;51.442;3.580;2023-06-10T05:04:32;11.65;;;9.10;;
45236;SDS011;30973;51.442;3.580;2023-06-10T05:06:59;10.10;;;8.57;;
45236;SDS011;30973;51.442;3.580;2023-06-10T05:09:25;11.63;;;9.13;;
45236;SDS011;30973;51.442;3.580;2023-06-10T05:11:52;11.02;;;9.05;;
45236;SDS011;30973;51.442;3.580;2023-06-10T05:14:20;11.07;;;8.70;;
45236;SDS011;30973;51.442;3.580;2023-06-10T05:16:47;10.32;;;8.60;;
45236;SDS011;30973;51.442;3.580;2023-06-10T05:19:14;11.00;;;8.93;;
45236;SDS011;30973;51.442;3.580;2023-06-10T05:21:43;11.65;;;8.98;;
45236;SDS011;30973;51.442;3.580;2023-06-10T05:24:10;10.35;;;9.35;;
45236;SDS011;30973;51.442;3.580;2023-06-10T05:26:37;10.70;;;9.32;;
45236;SDS011;30973;51.442;3.580;2023-06-10T05:29:04;9.48;;;8.55;;
45236;SDS011;30973;51.442;3.580;2023-06-10T05:31:31;10.57;;;9.05;;
45236;SDS011;30973;51.442;3.580;2023-06-10T05:33:58;10.30;;;9.07;;
45236;SDS011;30973;51.442;3.580;2023-06-10T05:36:24;10.20;;;9.05;;
45236;SDS011;30973;51.442;3.580;2023-06-10T05:38:54;10.63;;;8.57;;
45236;SDS011;30973;51.442;3.580;2023-06-10T05:41:21;14.13;;;9.27;;
45236;SDS011;30973;51.442;3.580;2023-06-10T05:43:48;10.90;;;8.68;;
45236;SDS011;30973;51.442;3.580;2023-06-10T05:46:15;11.02;;;8.07;;
45236;SDS011;30973;51.442;3.580;2023-06-10T05:48:41;12.85;;;9.00;;
45236;SDS011;30973;51.442;3.580;2023-06-10T05:51:08;10.70;;;9.32;;
45236;SDS011;30973;51.442;3.580;2023-06-10T05:53:34;11.68;;;8.82;;
45236;SDS011;30973;51.442;3.580;2023-06-10T05:56:01;10.75;;;9.18;;
45236;SDS011;30973;51.442;3.580;2023-06-10T05:58:28;11.13;;;8.25;;
45236;SDS011;30973;51.442;3.580;2023-06-10T06:00:55;12.43;;;8.60;;
45236;SDS011;30973;51.442;3.580;2023-06-10T06:03:21;10.93;;;8.40;;
45236;SDS011;30973;51.442;3.580;2023-06-10T06:05:48;9.30;;;8.15;;
45236;SDS011;30973;51.442;3.580;2023-06-10T06:08:15;9.40;;;7.90;;
45236;SDS011;30973;51.442;3.580;2023-06-10T06:10:45;12.10;;;8.80;;
45236;SDS011;30973;51.442;3.580;2023-06-10T06:13:11;9.60;;;8.57;;
45236;SDS011;30973;51.442;3.580;2023-06-10T06:15:38;10.95;;;8.30;;
45236;SDS011;30973;51.442;3.580;2023-06-10T06:18:04;10.98;;;8.20;;
45236;SDS011;30973;51.442;3.580;2023-06-10T06:20:31;10.02;;;8.95;;
45236;SDS011;30973;51.442;3.580;2023-06-10T06:22:58;8.85;;;7.95;;
45236;SDS011;30973;51.442;3.580;2023-06-10T06:25:25;9.02;;;8.00;;
45236;SDS011;30973;51.442;3.580;2023-06-10T06:27:51;9.32;;;7.55;;
45236;SDS011;30973;51.442;3.580;2023-06-10T06:30:18;9.07;;;7.55;;
45236;SDS011;30973;51.442;3.580;2023-06-10T06:32:45;9.75;;;7.65;;
45236;SDS011;30973;51.442;3.580;2023-06-10T06:35:12;10.73;;;8.30;;
45236;SDS011;30973;51.442;3.580;2023-06-10T06:37:38;10.18;;;8.38;;
45236;SDS011;30973;51.442;3.580;2023-06-10T06:40:19;11.40;;;7.90;;
45236;SDS011;30973;51.442;3.580;2023-06-10T06:42:46;11.00;;;7.90;;
45236;SDS011;30973;51.442;3.580;2023-06-10T06:45:21;10.20;;;8.38;;
45236;SDS011;30973;51.442;3.580;2023-06-10T06:47:48;11.00;;;8.50;;
45236;SDS011;30973;51.442;3.580;2023-06-10T06:50:14;9.60;;;8.65;;
45236;SDS011;30973;51.442;3.580;2023-06-10T06:52:41;9.35;;;7.63;;
45236;SDS011;30973;51.442;3.580;2023-06-10T06:55:08;9.00;;;7.90;;
45236;SDS011;30973;51.442;3.580;2023-06-10T06:57:35;9.32;;;8.23;;
45236;SDS011;30973;51.442;3.580;2023-06-10T07:00:02;9.18;;;8.10;;
45236;SDS011;30973;51.442;3.580;2023-06-10T07:02:29;10.75;;;7.90;;
45236;SDS011;30973;51.442;3.580;2023-06-10T07:04:58;12.68;;;8.50;;
45236;SDS011;30973;51.442;3.580;2023-06-10T07:07:25;10.48;;;8.45;;
45236;SDS011;30973;51.442;3.580;2023-06-10T07:09:54;9.60;;;7.82;;
45236;SDS011;30973;51.442;3.580;2023-06-10T07:12:21;11.23;;;7.68;;
45236;SDS011;30973;51.442;3.580;2023-06-10T07:14:50;10.55;;;7.60;;
45236;SDS011;30973;51.442;3.580;2023-06-10T07:17:17;9.68;;;7.90;;
45236;SDS011;30973;51.442;3.580;2023-06-10T07:19:45;8.85;;;7.72;;
45236;SDS011;30973;51.442;3.580;2023-06-10T07:22:11;12.07;;;8.38;;
45236;SDS011;30973;51.442;3.580;2023-06-10T07:24:38;8.27;;;7.38;;
45236;SDS011;30973;51.442;3.580;2023-06-10T07:27:05;11.30;;;8.13;;
45236;SDS011;30973;51.442;3.580;2023-06-10T07:29:32;10.13;;;7.90;;
45236;SDS011;30973;51.442;3.580;2023-06-10T07:31:58;9.57;;;8.60;;
45236;SDS011;30973;51.442;3.580;2023-06-10T07:34:25;10.40;;;8.00;;
45236;SDS011;30973;51.442;3.580;2023-06-10T07:36:52;8.77;;;7.88;;
45236;SDS011;30973;51.442;3.580;2023-06-10T07:39:18;11.70;;;7.80;;
45236;SDS011;30973;51.442;3.580;2023-06-10T07:41:45;11.60;;;7.60;;
45236;SDS011;30973;51.442;3.580;2023-06-10T07:44:11;12.48;;;7.82;;
45236;SDS011;30973;51.442;3.580;2023-06-10T07:46:38;9.85;;;8.90;;
45236;SDS011;30973;51.442;3.580;2023-06-10T07:49:05;11.00;;;8.20;;
45236;SDS011;30973;51.442;3.580;2023-06-10T07:51:31;11.00;;;9.05;;
45236;SDS011;30973;51.442;3.580;2023-06-10T07:53:58;11.15;;;9.65;;
45236;SDS011;30973;51.442;3.580;2023-06-10T07:56:24;10.88;;;8.85;;
45236;SDS011;30973;51.442;3.580;2023-06-10T07:58:52;10.40;;;7.78;;
45236;SDS011;30973;51.442;3.580;2023-06-10T08:01:19;11.82;;;8.50;;
45236;SDS011;30973;51.442;3.580;2023-06-10T08:03:46;10.38;;;8.85;;
45236;SDS011;30973;51.442;3.580;2023-06-10T08:06:13;11.82;;;8.63;;
45236;SDS011;30973;51.442;3.580;2023-06-10T08:08:40;13.32;;;9.43;;
45236;SDS011;30973;51.442;3.580;2023-06-10T08:11:12;10.93;;;9.80;;
45236;SDS011;30973;51.442;3.580;2023-06-10T08:13:38;12.68;;;9.02;;
45236;SDS011;30973;51.442;3.580;2023-06-10T08:16:06;11.75;;;10.05;;
45236;SDS011;30973;51.442;3.580;2023-06-10T08:18:32;10.65;;;9.55;;
45236;SDS011;30973;51.442;3.580;2023-06-10T08:21:00;11.93;;;9.70;;
45236;SDS011;30973;51.442;3.580;2023-06-10T08:23:27;13.60;;;10.18;;
45236;SDS011;30973;51.442;3.580;2023-06-10T08:25:53;12.48;;;11.18;;
45236;SDS011;30973;51.442;3.580;2023-06-10T08:28:20;13.32;;;10.98;;
45236;SDS011;30973;51.442;3.580;2023-06-10T08:30:46;14.32;;;9.98;;
45236;SDS011;30973;51.442;3.580;2023-06-10T08:33:13;11.85;;;10.35;;
45236;SDS011;30973;51.442;3.580;2023-06-10T08:35:40;11.35;;;10.25;;
45236;SDS011;30973;51.442;3.580;2023-06-10T08:38:06;11.20;;;10.02;;
45236;SDS011;30973;51.442;3.580;2023-06-10T08:40:34;11.40;;;10.30;;
45236;SDS011;30973;51.442;3.580;2023-06-10T08:43:04;12.75;;;9.20;;
45236;SDS011;30973;51.442;3.580;2023-06-10T08:45:34;12.07;;;9.68;;
45236;SDS011;30973;51.442;3.580;2023-06-10T08:48:05;12.27;;;9.75;;
45236;SDS011;30973;51.442;3.580;2023-06-10T08:50:37;11.10;;;9.40;;
45236;SDS011;30973;51.442;3.580;2023-06-10T08:53:05;12.20;;;8.43;;
45236;SDS011;30973;51.442;3.580;2023-06-10T08:55:33;9.60;;;8.70;;
45236;SDS011;30973;51.442;3.580;2023-06-10T08:58:00;15.85;;;9.68;;
45236;SDS011;30973;51.442;3.580;2023-06-10T09:00:28;10.82;;;8.52;;
45236;SDS011;30973;51.442;3.580;2023-06-10T09:02:55;12.00;;;8.63;;
45236;SDS011;30973;51.442;3.580;2023-06-10T09:05:22;9.63;;;8.45;;
45236;SDS011;30973;51.442;3.580;2023-06-10T09:07:49;19.63;;;9.32;;
45236;SDS011;30973;51.442;3.580;2023-06-10T09:10:18;11.27;;;8.90;;
45236;SDS011;30973;51.442;3.580;2023-06-10T09:12:44;10.43;;;8.68;;
45236;SDS011;30973;51.442;3.580;2023-06-10T09:15:11;12.57;;;8.40;;
45236;SDS011;30973;51.442;3.580;2023-06-10T09:17:41;10.15;;;7.55;;
45236;SDS011;30973;51.442;3.580;2023-06-10T09:20:07;11.63;;;9.05;;
45236;SDS011;30973;51.442;3.580;2023-06-10T09:22:36;10.93;;;7.43;;
45236;SDS011;30973;51.442;3.580;2023-06-10T09:25:07;9.65;;;8.13;;
45236;SDS011;30973;51.442;3.580;2023-06-10T09:27:51;10.60;;;8.65;;
45236;SDS011;30973;51.442;3.580;2023-06-10T09:30:30;9.85;;;8.45;;
45236;SDS011;30973;51.442;3.580;2023-06-10T09:32:57;9.27;;;8.20;;
45236;SDS011;30973;51.442;3.580;2023-06-10T09:35:24;8.48;;;7.43;;
45236;SDS011;30973;51.442;3.580;2023-06-10T09:37:52;10.65;;;7.47;;
45236;SDS011;30973;51.442;3.580;2023-06-10T09:40:19;10.00;;;8.07;;
45236;SDS011;30973;51.442;3.580;2023-06-10T09:42:46;11.48;;;8.82;;
45236;SDS011;30973;51.442;3.580;2023-06-10T09:47:47;9.73;;;7.55;;
45236;SDS011;30973;51.442;3.580;2023-06-10T09:50:13;8.48;;;7.35;;
45236;SDS011;30973;51.442;3.580;2023-06-10T09:52:40;9.73;;;8.52;;
45236;SDS011;30973;51.442;3.580;2023-06-10T09:55:08;10.50;;;7.82;;
45236;SDS011;30973;51.442;3.580;2023-06-10T09:57:34;9.00;;;7.72;;
45236;SDS011;30973;51.442;3.580;2023-06-10T10:00:06;10.15;;;7.25;;
45236;SDS011;30973;51.442;3.580;2023-06-10T10:02:44;8.07;;;7.13;;
45236;SDS011;30973;51.442;3.580;2023-06-10T10:05:13;8.23;;;6.90;;
45236;SDS011;30973;51.442;3.580;2023-06-10T10:07:40;8.35;;;7.28;;
45236;SDS011;30973;51.442;3.580;2023-06-10T10:10:09;10.43;;;7.20;;
45236;SDS011;30973;51.442;3.580;2023-06-10T10:21:50;12.20;;;7.47;;
45236;SDS011;30973;51.442;3.580;2023-06-10T10:24:18;9.23;;;7.13;;
45236;SDS011;30973;51.442;3.580;2023-06-10T10:26:48;9.90;;;7.35;;
45236;SDS011;30973;51.442;3.580;2023-06-10T10:29:20;11.13;;;7.65;;
45236;SDS011;30973;51.442;3.580;2023-06-10T10:31:50;8.38;;;7.53;;
45236;SDS011;30973;51.442;3.580;2023-06-10T10:34:21;8.35;;;7.47;;
45236;SDS011;30973;51.442;3.580;2023-06-10T10:36:50;11.73;;;8.05;;
45236;SDS011;30973;51.442;3.580;2023-06-10T10:39:17;8.70;;;6.78;;
45236;SDS011;30973;51.442;3.580;2023-06-10T10:41:44;7.32;;;6.60;;
45236;SDS011;30973;51.442;3.580;2023-06-10T10:44:11;11.13;;;6.70;;
45236;SDS011;30973;51.442;3.580;2023-06-10T10:46:41;8.13;;;6.45;;
45236;SDS011;30973;51.442;3.580;2023-06-10T10:49:10;10.52;;;6.82;;
45236;SDS011;30973;51.442;3.580;2023-06-10T10:51:38;8.45;;;5.75;;
45236;SDS011;30973;51.442;3.580;2023-06-10T10:54:21;10.85;;;6.47;;
45236;SDS011;30973;51.442;3.580;2023-06-10T10:59:20;10.60;;;6.80;;
45236;SDS011;30973;51.442;3.580;2023-06-10T11:01:47;7.72;;;6.38;;
45236;SDS011;30973;51.442;3.580;2023-06-10T11:04:14;7.22;;;5.80;;
45236;SDS011;30973;51.442;3.580;2023-06-10T11:06:53;6.63;;;5.78;;
45236;SDS011;30973;51.442;3.580;2023-06-10T11:09:27;9.15;;;5.75;;
45236;SDS011;30973;51.442;3.580;2023-06-10T11:11:56;7.75;;;6.25;;
45236;SDS011;30973;51.442;3.580;2023-06-10T11:14:27;10.02;;;6.25;;
45236;SDS011;30973;51.442;3.580;2023-06-10T11:16:58;6.57;;;5.88;;
45236;SDS011;30973;51.442;3.580;2023-06-10T11:19:35;7.13;;;6.13;;
45236;SDS011;30973;51.442;3.580;2023-06-10T11:22:03;7.07;;;6.38;;
45236;SDS011;30973;51.442;3.580;2023-06-10T11:24:30;9.27;;;6.30;;
45236;SDS011;30973;51.442;3.580;2023-06-10T11:32:21;6.80;;;6.18;;
45236;SDS011;30973;51.442;3.580;2023-06-10T11:34:52;7.72;;;6.60;;
45236;SDS011;30973;51.442;3.580;2023-06-10T11:37:19;7.05;;;6.35;;
45236;SDS011;30973;51.442;3.580;2023-06-10T11:39:45;8.23;;;6.38;;
45236;SDS011;30973;51.442;3.580;2023-06-10T11:42:12;8.20;;;6.10;;
45236;SDS011;30973;51.442;3.580;2023-06-10T11:44:39;9.07;;;6.35;;
45236;SDS011;30973;51.442;3.580;2023-06-10T11:47:13;7.90;;;6.22;;
45236;SDS011;30973;51.442;3.580;2023-06-10T11:49:40;8.20;;;6.30;;
45236;SDS011;30973;51.442;3.580;2023-06-10T11:52:10;9.43;;;6.00;;
45236;SDS011;30973;51.442;3.580;2023-06-10T11:54:37;10.85;;;5.82;;
45236;SDS011;30973;51.442;3.580;2023-06-10T11:57:04;8.32;;;5.90;;
45236;SDS011;30973;51.442;3.580;2023-06-10T11:59:31;6.50;;;5.90;;
45236;SDS011;30973;51.442;3.580;2023-06-10T12:01:58;8.60;;;6.80;;
45236;SDS011;30973;51.442;3.580;2023-06-10T12:04:25;6.20;;;5.57;;
45236;SDS011;30973;51.442;3.580;2023-06-10T12:06:53;9.93;;;6.43;;
45236;SDS011;30973;51.442;3.580;2023-06-10T12:09:23;10.52;;;6.35;;
45236;SDS011;30973;51.442;3.580;2023-06-10T12:12:03;8.00;;;6.20;;
45236;SDS011;30973;51.442;3.580;2023-06-10T12:17:15;7.00;;;5.85;;
45236;SDS011;30973;51.442;3.580;2023-06-10T12:19:42;8.95;;;5.93;;
45236;SDS011;30973;51.442;3.580;2023-06-10T12:22:09;13.90;;;6.47;;
45236;SDS011;30973;51.442;3.580;2023-06-10T12:24:43;9.68;;;6.18;;
45236;SDS011;30973;51.442;3.580;2023-06-10T12:27:11;8.63;;;6.28;;
45236;SDS011;30973;51.442;3.580;2023-06-10T12:29:38;9.95;;;6.32;;
45236;SDS011;30973;51.442;3.580;2023-06-10T12:32:04;7.00;;;6.20;;
45236;SDS011;30973;51.442;3.580;2023-06-10T12:34:37;6.93;;;6.18;;
45236;SDS011;30973;51.442;3.580;2023-06-10T12:37:05;7.93;;;5.90;;
45236;SDS011;30973;51.442;3.580;2023-06-10T12:39:32;7.45;;;6.10;;
45236;SDS011;30973;51.442;3.580;2023-06-10T12:41:59;11.48;;;5.93;;
45236;SDS011;30973;51.442;3.580;2023-06-10T12:44:30;7.57;;;6.05;;
45236;SDS011;30973;51.442;3.580;2023-06-10T12:46:56;7.78;;;6.32;;
45236;SDS011;30973;51.442;3.580;2023-06-10T12:49:23;9.85;;;5.95;;
45236;SDS011;30973;51.442;3.580;2023-06-10T12:51:51;6.75;;;6.05;;
45236;SDS011;30973;51.442;3.580;2023-06-10T12:54:17;9.57;;;6.28;;
45236;SDS011;30973;51.442;3.580;2023-06-10T12:56:45;9.13;;;6.22;;
45236;SDS011;30973;51.442;3.580;2023-06-10T12:59:11;8.27;;;5.88;;
45236;SDS011;30973;51.442;3.580;2023-06-10T13:01:38;10.27;;;5.85;;
45236;SDS011;30973;51.442;3.580;2023-06-10T13:04:05;8.48;;;5.90;;
45236;SDS011;30973;51.442;3.580;2023-06-10T13:06:33;7.57;;;6.03;;
45236;SDS011;30973;51.442;3.580;2023-06-10T13:09:02;6.72;;;6.05;;
45236;SDS011;30973;51.442;3.580;2023-06-10T13:11:29;8.25;;;6.20;;
45236;SDS011;30973;51.442;3.580;2023-06-10T13:13:56;7.45;;;6.05;;
45236;SDS011;30973;51.442;3.580;2023-06-10T13:16:22;7.20;;;5.80;;
45236;SDS011;30973;51.442;3.580;2023-06-10T13:18:49;8.88;;;6.07;;
45236;SDS011;30973;51.442;3.580;2023-06-10T13:21:15;8.52;;;5.97;;
45236;SDS011;30973;51.442;3.580;2023-06-10T13:23:44;7.97;;;6.30;;
45236;SDS011;30973;51.442;3.580;2023-06-10T13:26:12;8.52;;;6.13;;
45236;SDS011;30973;51.442;3.580;2023-06-10T13:28:39;8.32;;;5.82;;
45236;SDS011;30973;51.442;3.580;2023-06-10T13:31:06;8.00;;;6.35;;
45236;SDS011;30973;51.442;3.580;2023-06-10T13:33:33;7.40;;;6.10;;
45236;SDS011;30973;51.442;3.580;2023-06-10T13:36:00;7.65;;;6.25;;
45236;SDS011;30973;51.442;3.580;2023-06-10T13:38:26;9.95;;;6.05;;
45236;SDS011;30973;51.442;3.580;2023-06-10T13:40:53;8.18;;;6.13;;
45236;SDS011;30973;51.442;3.580;2023-06-10T13:43:20;6.82;;;5.97;;
45236;SDS011;30973;51.442;3.580;2023-06-10T13:45:46;7.25;;;6.38;;
45236;SDS011;30973;51.442;3.580;2023-06-10T13:48:13;8.77;;;6.50;;
45236;SDS011;30973;51.442;3.580;2023-06-10T13:50:39;6.85;;;6.13;;
45236;SDS011;30973;51.442;3.580;2023-06-10T13:53:06;6.80;;;5.90;;
45236;SDS011;30973;51.442;3.580;2023-06-10T13:55:33;6.53;;;5.82;;
45236;SDS011;30973;51.442;3.580;2023-06-10T13:57:59;7.47;;;6.40;;
45236;SDS011;30973;51.442;3.580;2023-06-10T14:00:26;7.70;;;6.32;;
45236;SDS011;30973;51.442;3.580;2023-06-10T14:02:53;8.98;;;5.90;;
45236;SDS011;30973;51.442;3.580;2023-06-10T14:05:20;11.95;;;5.90;;
45236;SDS011;30973;51.442;3.580;2023-06-10T14:07:47;8.35;;;6.35;;
45236;SDS011;30973;51.442;3.580;2023-06-10T14:10:13;8.77;;;6.18;;
45236;SDS011;30973;51.442;3.580;2023-06-10T14:12:40;6.85;;;6.00;;
45236;SDS011;30973;51.442;3.580;2023-06-10T14:15:06;7.25;;;6.00;;
45236;SDS011;30973;51.442;3.580;2023-06-10T14:17:34;7.95;;;6.30;;
45236;SDS011;30973;51.442;3.580;2023-06-10T14:20:00;6.72;;;5.72;;
45236;SDS011;30973;51.442;3.580;2023-06-10T14:22:27;7.72;;;6.43;;
45236;SDS011;30973;51.442;3.580;2023-06-10T14:24:53;8.93;;;5.63;;
45236;SDS011;30973;51.442;3.580;2023-06-10T14:27:20;7.00;;;5.47;;
45236;SDS011;30973;51.442;3.580;2023-06-10T14:29:47;8.02;;;6.07;;
45236;SDS011;30973;51.442;3.580;2023-06-10T14:32:13;10.20;;;6.47;;
45236;SDS011;30973;51.442;3.580;2023-06-10T14:34:40;8.60;;;6.15;;
45236;SDS011;30973;51.442;3.580;2023-06-10T14:37:08;9.05;;;5.25;;
45236;SDS011;30973;51.442;3.580;2023-06-10T14:39:35;9.32;;;6.00;;
45236;SDS011;30973;51.442;3.580;2023-06-10T14:42:02;8.52;;;5.85;;
45236;SDS011;30973;51.442;3.580;2023-06-10T14:44:29;7.45;;;5.88;;
45236;SDS011;30973;51.442;3.580;2023-06-10T14:46:55;8.38;;;5.78;;
45236;SDS011;30973;51.442;3.580;2023-06-10T14:49:22;8.40;;;6.50;;
45236;SDS011;30973;51.442;3.580;2023-06-10T14:51:49;7.72;;;5.50;;
45236;SDS011;30973;51.442;3.580;2023-06-10T14:54:16;6.55;;;5.90;;
45236;SDS011;30973;51.442;3.580;2023-06-10T14:56:43;8.30;;;6.40;;
45236;SDS011;30973;51.442;3.580;2023-06-10T14:59:10;6.50;;;5.88;;
45236;SDS011;30973;51.442;3.580;2023-06-10T15:01:36;7.35;;;6.63;;
45236;SDS011;30973;51.442;3.580;2023-06-10T15:04:03;8.45;;;6.13;;
45236;SDS011;30973;51.442;3.580;2023-06-10T15:06:30;6.80;;;6.10;;
45236;SDS011;30973;51.442;3.580;2023-06-10T15:08:56;6.70;;;6.05;;
45236;SDS011;30973;51.442;3.580;2023-06-10T15:11:23;8.45;;;6.07;;
45236;SDS011;30973;51.442;3.580;2023-06-10T15:13:49;6.60;;;5.82;;